sensor_id;sensor_type;location;lat;lon;timestamp;temperature;humidity
9824;DHT22;4951;50.778;7.196;2022-09-28T00:00:28;8.90;64.60
9824;DHT22;4951;50.778;7.196;2022-09-28T00:02:56;8.90;62.30
9824;DHT22;4951;50.778;7.196;2022-09-28T00:05:23;8.90;60.10
9824;DHT22;4951;50.778;7.196;2022-09-28T00:07:52;8.90;57.20
9824;DHT22;4951;50.778;7.196;2022-09-28T00:10:20;8.80;54.80
9824;DHT22;4951;50.778;7.196;2022-09-28T00:12:50;8.80;57.60
9824;DHT22;4951;50.778;7.196;2022-09-28T00:15:18;8.80;61.70
9824;DHT22;4951;50.778;7.196;2022-09-28T00:17:45;8.80;65.40
9824;DHT22;4951;50.778;7.196;2022-09-28T00:20:12;8.80;70.60
9824;DHT22;4951;50.778;7.196;2022-09-28T00:22:42;8.80;78.10
9824;DHT22;4951;50.778;7.196;2022-09-28T00:25:09;8.80;82.20
9824;DHT22;4951;50.778;7.196;2022-09-28T00:27:36;8.80;87.40
9824;DHT22;4951;50.778;7.196;2022-09-28T00:30:07;8.80;90.40
9824;DHT22;4951;50.778;7.196;2022-09-28T00:32:34;8.80;92.20
9824;DHT22;4951;50.778;7.196;2022-09-28T00:35:01;8.80;94.40
9824;DHT22;4951;50.778;7.196;2022-09-28T00:37:28;8.80;96.00
9824;DHT22;4951;50.778;7.196;2022-09-28T00:39:55;8.80;99.50
9824;DHT22;4951;50.778;7.196;2022-09-28T00:42:24;8.90;99.90
9824;DHT22;4951;50.778;7.196;2022-09-28T00:44:53;8.90;99.90
9824;DHT22;4951;50.778;7.196;2022-09-28T00:47:39;8.90;99.90
9824;DHT22;4951;50.778;7.196;2022-09-28T00:50:23;8.90;99.90
9824;DHT22;4951;50.778;7.196;2022-09-28T00:52:54;8.90;99.90
9824;DHT22;4951;50.778;7.196;2022-09-28T00:55:28;8.90;99.90
9824;DHT22;4951;50.778;7.196;2022-09-28T00:58:00;8.80;99.90
9824;DHT22;4951;50.778;7.196;2022-09-28T01:00:29;8.90;99.90
9824;DHT22;4951;50.778;7.196;2022-09-28T01:02:58;8.90;99.90
9824;DHT22;4951;50.778;7.196;2022-09-28T01:05:26;8.80;99.90
9824;DHT22;4951;50.778;7.196;2022-09-28T01:07:55;8.80;99.90
9824;DHT22;4951;50.778;7.196;2022-09-28T01:10:24;8.80;99.90
9824;DHT22;4951;50.778;7.196;2022-09-28T01:12:51;8.80;99.90
9824;DHT22;4951;50.778;7.196;2022-09-28T01:15:19;8.80;99.90
9824;DHT22;4951;50.778;7.196;2022-09-28T01:17:59;8.70;99.90
9824;DHT22;4951;50.778;7.196;2022-09-28T01:20:50;8.70;99.90
9824;DHT22;4951;50.778;7.196;2022-09-28T01:26:51;8.60;99.90
9824;DHT22;4951;50.778;7.196;2022-09-28T01:29:28;8.60;99.90
9824;DHT22;4951;50.778;7.196;2022-09-28T01:32:03;8.60;99.90
9824;DHT22;4951;50.778;7.196;2022-09-28T01:34:37;8.60;99.90
9824;DHT22;4951;50.778;7.196;2022-09-28T01:37:08;8.60;99.90
9824;DHT22;4951;50.778;7.196;2022-09-28T01:39:40;8.50;99.90
9824;DHT22;4951;50.778;7.196;2022-09-28T01:42:15;8.60;99.90
9824;DHT22;4951;50.778;7.196;2022-09-28T01:44:47;8.50;99.90
9824;DHT22;4951;50.778;7.196;2022-09-28T01:47:20;8.60;99.90
9824;DHT22;4951;50.778;7.196;2022-09-28T01:49:52;8.60;99.90
9824;DHT22;4951;50.778;7.196;2022-09-28T01:52:24;8.50;99.90
9824;DHT22;4951;50.778;7.196;2022-09-28T01:54:57;8.60;99.90
9824;DHT22;4951;50.778;7.196;2022-09-28T01:57:34;8.50;99.90
9824;DHT22;4951;50.778;7.196;2022-09-28T02:00:06;8.50;99.90
9824;DHT22;4951;50.778;7.196;2022-09-28T02:02:48;8.50;99.90
9824;DHT22;4951;50.778;7.196;2022-09-28T02:05:28;8.50;99.90
9824;DHT22;4951;50.778;7.196;2022-09-28T02:08:01;8.50;99.90
9824;DHT22;4951;50.778;7.196;2022-09-28T02:10:33;8.50;99.90
9824;DHT22;4951;50.778;7.196;2022-09-28T02:13:07;8.50;99.90
9824;DHT22;4951;50.778;7.196;2022-09-28T02:15:41;8.50;99.90
9824;DHT22;4951;50.778;7.196;2022-09-28T02:18:09;8.60;99.90
9824;DHT22;4951;50.778;7.196;2022-09-28T02:20:38;8.60;99.90
9824;DHT22;4951;50.778;7.196;2022-09-28T02:23:07;8.60;99.90
9824;DHT22;4951;50.778;7.196;2022-09-28T02:25:39;8.60;99.90
9824;DHT22;4951;50.778;7.196;2022-09-28T02:28:10;8.60;99.90
9824;DHT22;4951;50.778;7.196;2022-09-28T02:30:41;8.60;99.90
9824;DHT22;4951;50.778;7.196;2022-09-28T02:33:12;8.60;99.90
9824;DHT22;4951;50.778;7.196;2022-09-28T02:35:41;8.60;99.90
9824;DHT22;4951;50.778;7.196;2022-09-28T02:38:10;8.60;99.90
9824;DHT22;4951;50.778;7.196;2022-09-28T02:40:38;8.60;99.90
9824;DHT22;4951;50.778;7.196;2022-09-28T02:43:14;8.50;99.90
9824;DHT22;4951;50.778;7.196;2022-09-28T02:45:52;8.50;99.90
9824;DHT22;4951;50.778;7.196;2022-09-28T02:48:39;8.50;99.90
9824;DHT22;4951;50.778;7.196;2022-09-28T02:51:21;8.50;99.90
9824;DHT22;4951;50.778;7.196;2022-09-28T02:54:29;8.40;99.90
9824;DHT22;4951;50.778;7.196;2022-09-28T02:57:11;8.40;99.90
9824;DHT22;4951;50.778;7.196;2022-09-28T02:59:46;8.40;99.90
9824;DHT22;4951;50.778;7.196;2022-09-28T03:02:24;8.40;97.00
9824;DHT22;4951;50.778;7.196;2022-09-28T03:05:03;8.40;94.90
9824;DHT22;4951;50.778;7.196;2022-09-28T03:07:37;8.40;92.80
9824;DHT22;4951;50.778;7.196;2022-09-28T03:10:12;8.40;91.30
9824;DHT22;4951;50.778;7.196;2022-09-28T03:12:42;8.40;89.10
9824;DHT22;4951;50.778;7.196;2022-09-28T03:15:18;8.40;84.50
9824;DHT22;4951;50.778;7.196;2022-09-28T03:17:46;8.40;81.10
9824;DHT22;4951;50.778;7.196;2022-09-28T03:20:14;8.40;80.00
9824;DHT22;4951;50.778;7.196;2022-09-28T03:22:42;8.40;79.00
9824;DHT22;4951;50.778;7.196;2022-09-28T03:25:09;8.40;78.30
9824;DHT22;4951;50.778;7.196;2022-09-28T03:27:38;8.40;79.60
9824;DHT22;4951;50.778;7.196;2022-09-28T03:30:07;8.40;79.80
9824;DHT22;4951;50.778;7.196;2022-09-28T03:32:38;8.50;80.60
9824;DHT22;4951;50.778;7.196;2022-09-28T03:35:07;8.40;79.50
9824;DHT22;4951;50.778;7.196;2022-09-28T03:37:35;8.40;78.70
9824;DHT22;4951;50.778;7.196;2022-09-28T03:40:04;8.50;76.30
9824;DHT22;4951;50.778;7.196;2022-09-28T03:42:35;8.50;70.40
9824;DHT22;4951;50.778;7.196;2022-09-28T03:45:03;8.50;67.20
9824;DHT22;4951;50.778;7.196;2022-09-28T03:47:31;8.50;64.60
9824;DHT22;4951;50.778;7.196;2022-09-28T03:49:59;8.50;62.40
9824;DHT22;4951;50.778;7.196;2022-09-28T03:52:27;8.50;61.10
9824;DHT22;4951;50.778;7.196;2022-09-28T03:54:55;8.50;63.80
9824;DHT22;4951;50.778;7.196;2022-09-28T03:57:23;8.50;66.80
9824;DHT22;4951;50.778;7.196;2022-09-28T03:59:50;8.50;67.90
9824;DHT22;4951;50.778;7.196;2022-09-28T04:02:17;8.50;69.10
9824;DHT22;4951;50.778;7.196;2022-09-28T04:04:45;8.50;69.10
9824;DHT22;4951;50.778;7.196;2022-09-28T04:07:15;8.50;67.90
9824;DHT22;4951;50.778;7.196;2022-09-28T04:09:42;8.50;61.70
9824;DHT22;4951;50.778;7.196;2022-09-28T04:12:10;8.50;57.80
9824;DHT22;4951;50.778;7.196;2022-09-28T04:14:37;8.50;50.80
9824;DHT22;4951;50.778;7.196;2022-09-28T04:17:04;8.50;41.40
9824;DHT22;4951;50.778;7.196;2022-09-28T04:19:32;8.50;34.00
9824;DHT22;4951;50.778;7.196;2022-09-28T04:22:19;8.50;33.00
9824;DHT22;4951;50.778;7.196;2022-09-28T04:24:46;8.50;30.20
9824;DHT22;4951;50.778;7.196;2022-09-28T04:27:14;8.50;24.70
9824;DHT22;4951;50.778;7.196;2022-09-28T04:30:00;8.50;21.50
9824;DHT22;4951;50.778;7.196;2022-09-28T04:32:29;8.40;20.60
9824;DHT22;4951;50.778;7.196;2022-09-28T04:34:56;8.50;21.10
9824;DHT22;4951;50.778;7.196;2022-09-28T04:37:24;8.40;20.90
9824;DHT22;4951;50.778;7.196;2022-09-28T04:39:51;8.40;20.50
9824;DHT22;4951;50.778;7.196;2022-09-28T04:42:19;8.40;17.20
9824;DHT22;4951;50.778;7.196;2022-09-28T04:44:48;8.40;14.00
9824;DHT22;4951;50.778;7.196;2022-09-28T04:47:16;8.40;10.50
9824;DHT22;4951;50.778;7.196;2022-09-28T04:49:50;8.40;9.40
9824;DHT22;4951;50.778;7.196;2022-09-28T04:52:25;8.40;11.50
9824;DHT22;4951;50.778;7.196;2022-09-28T04:54:52;8.40;14.80
9824;DHT22;4951;50.778;7.196;2022-09-28T04:57:21;8.40;15.10
9824;DHT22;4951;50.778;7.196;2022-09-28T04:59:50;8.40;14.30
9824;DHT22;4951;50.778;7.196;2022-09-28T05:02:41;8.40;14.00
9824;DHT22;4951;50.778;7.196;2022-09-28T05:05:32;8.40;15.50
9824;DHT22;4951;50.778;7.196;2022-09-28T05:08:30;8.40;17.20
9824;DHT22;4951;50.778;7.196;2022-09-28T05:10:59;8.40;16.20
9824;DHT22;4951;50.778;7.196;2022-09-28T05:13:28;8.40;16.80
9824;DHT22;4951;50.778;7.196;2022-09-28T05:15:57;8.40;16.50
9824;DHT22;4951;50.778;7.196;2022-09-28T05:18:25;8.40;15.70
9824;DHT22;4951;50.778;7.196;2022-09-28T05:21:02;8.40;17.10
9824;DHT22;4951;50.778;7.196;2022-09-28T05:23:34;8.40;16.20
9824;DHT22;4951;50.778;7.196;2022-09-28T05:26:02;8.40;12.90
9824;DHT22;4951;50.778;7.196;2022-09-28T05:28:31;8.40;5.30
9824;DHT22;4951;50.778;7.196;2022-09-28T05:31:27;8.40;1.00
9824;DHT22;4951;50.778;7.196;2022-09-28T05:34:04;8.40;1.00
9824;DHT22;4951;50.778;7.196;2022-09-28T05:36:32;8.40;1.00
9824;DHT22;4951;50.778;7.196;2022-09-28T05:39:03;8.40;1.50
9824;DHT22;4951;50.778;7.196;2022-09-28T05:41:31;8.40;3.50
9824;DHT22;4951;50.778;7.196;2022-09-28T05:43:59;8.40;5.40
9824;DHT22;4951;50.778;7.196;2022-09-28T05:46:34;8.40;5.30
9824;DHT22;4951;50.778;7.196;2022-09-28T05:49:11;8.40;3.40
9824;DHT22;4951;50.778;7.196;2022-09-28T05:51:39;8.40;3.50
9824;DHT22;4951;50.778;7.196;2022-09-28T05:54:11;8.40;1.40
9824;DHT22;4951;50.778;7.196;2022-09-28T05:56:47;8.40;1.00
9824;DHT22;4951;50.778;7.196;2022-09-28T05:59:15;8.40;1.00
9824;DHT22;4951;50.778;7.196;2022-09-28T06:01:44;8.40;1.00
9824;DHT22;4951;50.778;7.196;2022-09-28T06:04:13;8.40;1.00
9824;DHT22;4951;50.778;7.196;2022-09-28T06:06:49;8.40;1.00
9824;DHT22;4951;50.778;7.196;2022-09-28T06:09:22;8.50;1.00
9824;DHT22;4951;50.778;7.196;2022-09-28T06:12:12;8.40;1.00
9824;DHT22;4951;50.778;7.196;2022-09-28T06:14:48;8.50;1.00
9824;DHT22;4951;50.778;7.196;2022-09-28T06:17:18;8.50;1.00
9824;DHT22;4951;50.778;7.196;2022-09-28T06:19:54;8.50;1.00
9824;DHT22;4951;50.778;7.196;2022-09-28T06:22:27;8.50;1.00
9824;DHT22;4951;50.778;7.196;2022-09-28T06:25:05;8.60;1.00
9824;DHT22;4951;50.778;7.196;2022-09-28T06:27:33;8.60;1.00
9824;DHT22;4951;50.778;7.196;2022-09-28T06:30:12;8.60;1.00
9824;DHT22;4951;50.778;7.196;2022-09-28T06:32:43;8.60;1.00
9824;DHT22;4951;50.778;7.196;2022-09-28T06:35:13;8.60;1.00
9824;DHT22;4951;50.778;7.196;2022-09-28T06:38:00;8.60;1.00
9824;DHT22;4951;50.778;7.196;2022-09-28T06:40:32;8.70;1.00
9824;DHT22;4951;50.778;7.196;2022-09-28T06:43:03;8.70;1.00
9824;DHT22;4951;50.778;7.196;2022-09-28T06:46:05;8.80;1.00
9824;DHT22;4951;50.778;7.196;2022-09-28T06:48:49;8.80;1.00
9824;DHT22;4951;50.778;7.196;2022-09-28T06:51:32;8.80;1.00
9824;DHT22;4951;50.778;7.196;2022-09-28T06:54:11;8.80;1.00
9824;DHT22;4951;50.778;7.196;2022-09-28T06:56:59;8.80;1.00
9824;DHT22;4951;50.778;7.196;2022-09-28T06:59:29;8.90;1.00
9824;DHT22;4951;50.778;7.196;2022-09-28T07:01:58;8.90;1.00
9824;DHT22;4951;50.778;7.196;2022-09-28T07:04:45;8.90;1.00
9824;DHT22;4951;50.778;7.196;2022-09-28T07:07:51;8.90;1.00
9824;DHT22;4951;50.778;7.196;2022-09-28T07:10:41;8.90;1.00
9824;DHT22;4951;50.778;7.196;2022-09-28T07:13:50;8.90;1.00
9824;DHT22;4951;50.778;7.196;2022-09-28T07:16:23;9.00;1.00
9824;DHT22;4951;50.778;7.196;2022-09-28T07:18:51;9.00;1.00
9824;DHT22;4951;50.778;7.196;2022-09-28T07:21:19;9.10;1.00
9824;DHT22;4951;50.778;7.196;2022-09-28T07:23:49;9.10;1.00
9824;DHT22;4951;50.778;7.196;2022-09-28T07:26:22;9.10;1.00
9824;DHT22;4951;50.778;7.196;2022-09-28T07:28:59;9.10;1.00
9824;DHT22;4951;50.778;7.196;2022-09-28T07:31:36;9.10;1.00
9824;DHT22;4951;50.778;7.196;2022-09-28T07:34:27;9.20;1.00
9824;DHT22;4951;50.778;7.196;2022-09-28T07:37:12;9.20;1.00
9824;DHT22;4951;50.778;7.196;2022-09-28T07:39:40;9.20;1.00
9824;DHT22;4951;50.778;7.196;2022-09-28T07:42:25;9.30;1.00
9824;DHT22;4951;50.778;7.196;2022-09-28T07:45:11;9.30;1.00
9824;DHT22;4951;50.778;7.196;2022-09-28T07:47:42;9.30;1.00
9824;DHT22;4951;50.778;7.196;2022-09-28T07:50:26;9.30;1.00
9824;DHT22;4951;50.778;7.196;2022-09-28T07:53:15;9.40;1.00
9824;DHT22;4951;50.778;7.196;2022-09-28T07:56:11;9.40;1.00
9824;DHT22;4951;50.778;7.196;2022-09-28T07:59:08;9.40;1.00
9824;DHT22;4951;50.778;7.196;2022-09-28T08:01:43;9.50;1.00
9824;DHT22;4951;50.778;7.196;2022-09-28T08:04:13;9.50;1.00
9824;DHT22;4951;50.778;7.196;2022-09-28T08:06:45;9.50;1.00
9824;DHT22;4951;50.778;7.196;2022-09-28T08:09:14;9.60;1.00
9824;DHT22;4951;50.778;7.196;2022-09-28T08:12:00;9.60;1.00
9824;DHT22;4951;50.778;7.196;2022-09-28T08:14:55;9.70;1.00
9824;DHT22;4951;50.778;7.196;2022-09-28T08:17:36;9.70;1.00
9824;DHT22;4951;50.778;7.196;2022-09-28T08:20:07;9.80;1.00
9824;DHT22;4951;50.778;7.196;2022-09-28T08:22:52;9.80;1.00
9824;DHT22;4951;50.778;7.196;2022-09-28T08:25:20;9.90;1.00
9824;DHT22;4951;50.778;7.196;2022-09-28T08:27:51;9.90;1.00
9824;DHT22;4951;50.778;7.196;2022-09-28T08:30:23;10.00;1.00
9824;DHT22;4951;50.778;7.196;2022-09-28T08:33:16;10.10;1.00
9824;DHT22;4951;50.778;7.196;2022-09-28T08:35:54;10.10;1.00
9824;DHT22;4951;50.778;7.196;2022-09-28T08:38:54;10.20;1.00
9824;DHT22;4951;50.778;7.196;2022-09-28T08:41:44;10.30;1.00
9824;DHT22;4951;50.778;7.196;2022-09-28T08:44:36;10.40;1.00
9824;DHT22;4951;50.778;7.196;2022-09-28T08:47:17;10.50;1.00
9824;DHT22;4951;50.778;7.196;2022-09-28T08:50:46;10.60;1.00
9824;DHT22;4951;50.778;7.196;2022-09-28T08:53:31;10.60;1.00
9824;DHT22;4951;50.778;7.196;2022-09-28T08:56:25;10.60;99.90
9824;DHT22;4951;50.778;7.196;2022-09-28T08:58:57;10.50;99.90
9824;DHT22;4951;50.778;7.196;2022-09-28T09:01:37;10.40;99.90
9824;DHT22;4951;50.778;7.196;2022-09-28T09:04:11;10.40;99.90
9824;DHT22;4951;50.778;7.196;2022-09-28T09:07:19;10.40;99.90
9824;DHT22;4951;50.778;7.196;2022-09-28T09:10:01;10.50;99.90
9824;DHT22;4951;50.778;7.196;2022-09-28T09:12:34;10.50;1.00
9824;DHT22;4951;50.778;7.196;2022-09-28T09:15:32;10.60;1.00
9824;DHT22;4951;50.778;7.196;2022-09-28T09:18:18;10.80;1.00
9824;DHT22;4951;50.778;7.196;2022-09-28T09:21:13;10.90;99.90
9824;DHT22;4951;50.778;7.196;2022-09-28T09:23:50;10.90;99.90
9824;DHT22;4951;50.778;7.196;2022-09-28T09:26:21;10.90;99.90
9824;DHT22;4951;50.778;7.196;2022-09-28T09:29:04;10.90;92.90
9824;DHT22;4951;50.778;7.196;2022-09-28T09:34:53;10.90;99.90
9824;DHT22;4951;50.778;7.196;2022-09-28T09:37:48;10.90;99.90
9824;DHT22;4951;50.778;7.196;2022-09-28T09:40:58;11.00;99.90
9824;DHT22;4951;50.778;7.196;2022-09-28T09:44:15;11.00;99.90
9824;DHT22;4951;50.778;7.196;2022-09-28T09:47:02;11.10;99.90
9824;DHT22;4951;50.778;7.196;2022-09-28T09:49:53;11.20;99.90
9824;DHT22;4951;50.778;7.196;2022-09-28T09:52:25;11.30;14.60
9824;DHT22;4951;50.778;7.196;2022-09-28T09:54:57;11.40;99.90
9824;DHT22;4951;50.778;7.196;2022-09-28T09:57:54;11.60;25.90
9824;DHT22;4951;50.778;7.196;2022-09-28T10:00:38;11.70;1.00
9824;DHT22;4951;50.778;7.196;2022-09-28T10:03:21;11.80;1.00
9824;DHT22;4951;50.778;7.196;2022-09-28T10:05:53;11.80;1.00
9824;DHT22;4951;50.778;7.196;2022-09-28T10:08:23;11.90;1.00
9824;DHT22;4951;50.778;7.196;2022-09-28T10:10:54;11.90;99.90
9824;DHT22;4951;50.778;7.196;2022-09-28T10:13:36;12.00;99.90
9824;DHT22;4951;50.778;7.196;2022-09-28T10:16:14;12.10;99.90
9824;DHT22;4951;50.778;7.196;2022-09-28T10:18:53;12.10;1.00
9824;DHT22;4951;50.778;7.196;2022-09-28T10:21:40;12.20;23.60
9824;DHT22;4951;50.778;7.196;2022-09-28T10:24:27;12.30;1.00
9824;DHT22;4951;50.778;7.196;2022-09-28T10:27:02;12.40;1.00
9824;DHT22;4951;50.778;7.196;2022-09-28T10:29:40;12.40;99.90
9824;DHT22;4951;50.778;7.196;2022-09-28T10:32:21;12.50;1.00
9824;DHT22;4951;50.778;7.196;2022-09-28T10:34:52;12.50;99.90
9824;DHT22;4951;50.778;7.196;2022-09-28T10:37:25;12.60;99.90
9824;DHT22;4951;50.778;7.196;2022-09-28T10:40:26;12.60;99.90
9824;DHT22;4951;50.778;7.196;2022-09-28T10:43:16;12.80;1.00
9824;DHT22;4951;50.778;7.196;2022-09-28T10:45:47;12.90;1.00
9824;DHT22;4951;50.778;7.196;2022-09-28T10:48:28;13.00;1.00
9824;DHT22;4951;50.778;7.196;2022-09-28T10:51:04;13.00;99.90
9824;DHT22;4951;50.778;7.196;2022-09-28T10:53:35;13.00;99.90
9824;DHT22;4951;50.778;7.196;2022-09-28T10:56:27;13.00;1.00
9824;DHT22;4951;50.778;7.196;2022-09-28T10:59:22;12.90;99.90
9824;DHT22;4951;50.778;7.196;2022-09-28T11:01:55;12.80;1.00
9824;DHT22;4951;50.778;7.196;2022-09-28T11:04:33;12.70;99.90
9824;DHT22;4951;50.778;7.196;2022-09-28T11:07:15;12.60;99.90
9824;DHT22;4951;50.778;7.196;2022-09-28T11:09:45;12.60;99.90
9824;DHT22;4951;50.778;7.196;2022-09-28T11:12:15;12.60;99.90
9824;DHT22;4951;50.778;7.196;2022-09-28T11:14:47;12.60;99.90
9824;DHT22;4951;50.778;7.196;2022-09-28T11:17:25;12.50;1.00
9824;DHT22;4951;50.778;7.196;2022-09-28T11:19:59;12.50;73.90
9824;DHT22;4951;50.778;7.196;2022-09-28T11:22:31;12.60;99.90
9824;DHT22;4951;50.778;7.196;2022-09-28T11:25:19;12.70;64.00
9824;DHT22;4951;50.778;7.196;2022-09-28T11:28:00;12.70;99.90
9824;DHT22;4951;50.778;7.196;2022-09-28T11:30:32;12.60;1.00
9824;DHT22;4951;50.778;7.196;2022-09-28T11:33:21;12.70;99.90
9824;DHT22;4951;50.778;7.196;2022-09-28T11:36:42;12.80;1.00
9824;DHT22;4951;50.778;7.196;2022-09-28T11:39:17;13.00;1.00
9824;DHT22;4951;50.778;7.196;2022-09-28T11:42:00;13.30;1.00
9824;DHT22;4951;50.778;7.196;2022-09-28T11:44:39;13.50;1.00
9824;DHT22;4951;50.778;7.196;2022-09-28T11:50:15;14.10;1.00
9824;DHT22;4951;50.778;7.196;2022-09-28T11:52:49;14.40;99.90
9824;DHT22;4951;50.778;7.196;2022-09-28T11:55:25;14.50;99.90
9824;DHT22;4951;50.778;7.196;2022-09-28T11:57:59;14.50;1.00
9824;DHT22;4951;50.778;7.196;2022-09-28T12:00:33;14.30;1.00
9824;DHT22;4951;50.778;7.196;2022-09-28T12:03:07;14.10;99.90
9824;DHT22;4951;50.778;7.196;2022-09-28T12:05:46;13.90;99.90
9824;DHT22;4951;50.778;7.196;2022-09-28T12:08:18;13.70;1.00
9824;DHT22;4951;50.778;7.196;2022-09-28T12:11:13;13.50;99.90
9824;DHT22;4951;50.778;7.196;2022-09-28T12:14:14;13.30;1.00
9824;DHT22;4951;50.778;7.196;2022-09-28T12:16:48;13.20;1.00
9824;DHT22;4951;50.778;7.196;2022-09-28T12:19:19;13.10;1.00
9824;DHT22;4951;50.778;7.196;2022-09-28T12:21:50;13.10;1.00
9824;DHT22;4951;50.778;7.196;2022-09-28T12:24:23;13.20;1.00
9824;DHT22;4951;50.778;7.196;2022-09-28T12:26:57;13.20;99.90
9824;DHT22;4951;50.778;7.196;2022-09-28T12:29:28;13.30;1.00
9824;DHT22;4951;50.778;7.196;2022-09-28T12:32:03;13.40;99.90
9824;DHT22;4951;50.778;7.196;2022-09-28T12:34:36;13.50;87.10
9824;DHT22;4951;50.778;7.196;2022-09-28T12:37:34;13.60;1.00
9824;DHT22;4951;50.778;7.196;2022-09-28T12:40:27;13.70;1.00
9824;DHT22;4951;50.778;7.196;2022-09-28T12:43:43;13.70;1.00
9824;DHT22;4951;50.778;7.196;2022-09-28T12:46:29;13.70;99.90
9824;DHT22;4951;50.778;7.196;2022-09-28T12:49:13;13.70;1.00
9824;DHT22;4951;50.778;7.196;2022-09-28T12:51:48;13.70;99.90
9824;DHT22;4951;50.778;7.196;2022-09-28T12:54:58;13.70;99.90
9824;DHT22;4951;50.778;7.196;2022-09-28T12:57:39;13.70;99.90
9824;DHT22;4951;50.778;7.196;2022-09-28T13:00:13;13.70;99.90
9824;DHT22;4951;50.778;7.196;2022-09-28T13:03:20;13.70;1.00
9824;DHT22;4951;50.778;7.196;2022-09-28T13:06:36;13.70;99.90
9824;DHT22;4951;50.778;7.196;2022-09-28T13:09:15;13.70;99.90
9824;DHT22;4951;50.778;7.196;2022-09-28T13:11:54;13.60;1.00
9824;DHT22;4951;50.778;7.196;2022-09-28T13:14:51;13.60;1.00
9824;DHT22;4951;50.778;7.196;2022-09-28T13:17:36;13.50;1.00
9824;DHT22;4951;50.778;7.196;2022-09-28T13:20:13;13.50;1.00
9824;DHT22;4951;50.778;7.196;2022-09-28T13:22:48;13.50;99.90
9824;DHT22;4951;50.778;7.196;2022-09-28T13:25:22;13.50;1.00
9824;DHT22;4951;50.778;7.196;2022-09-28T13:27:57;13.50;1.00
9824;DHT22;4951;50.778;7.196;2022-09-28T13:30:26;13.50;1.00
9824;DHT22;4951;50.778;7.196;2022-09-28T13:32:55;13.40;99.90
9824;DHT22;4951;50.778;7.196;2022-09-28T13:35:25;13.40;1.00
9824;DHT22;4951;50.778;7.196;2022-09-28T13:38:29;13.30;99.90
9824;DHT22;4951;50.778;7.196;2022-09-28T13:41:11;13.40;1.00
9824;DHT22;4951;50.778;7.196;2022-09-28T13:43:53;13.30;1.00
9824;DHT22;4951;50.778;7.196;2022-09-28T13:46:36;13.30;1.00
9824;DHT22;4951;50.778;7.196;2022-09-28T13:49:14;13.30;1.00
9824;DHT22;4951;50.778;7.196;2022-09-28T13:52:00;13.20;1.00
9824;DHT22;4951;50.778;7.196;2022-09-28T13:54:39;13.20;1.00
9824;DHT22;4951;50.778;7.196;2022-09-28T13:57:17;13.20;99.90
9824;DHT22;4951;50.778;7.196;2022-09-28T13:59:59;13.20;1.00
9824;DHT22;4951;50.778;7.196;2022-09-28T14:02:34;13.20;1.00
9824;DHT22;4951;50.778;7.196;2022-09-28T14:05:05;13.30;1.00
9824;DHT22;4951;50.778;7.196;2022-09-28T14:08:18;13.30;1.00
9824;DHT22;4951;50.778;7.196;2022-09-28T14:10:51;13.30;1.00
9824;DHT22;4951;50.778;7.196;2022-09-28T14:13:57;13.30;99.90
9824;DHT22;4951;50.778;7.196;2022-09-28T14:16:28;13.30;1.00
9824;DHT22;4951;50.778;7.196;2022-09-28T14:19:03;13.40;1.00
9824;DHT22;4951;50.778;7.196;2022-09-28T14:21:54;13.40;1.00
9824;DHT22;4951;50.778;7.196;2022-09-28T14:24:37;13.50;1.00
9824;DHT22;4951;50.778;7.196;2022-09-28T14:30:46;13.50;99.90
9824;DHT22;4951;50.778;7.196;2022-09-28T14:33:24;13.50;1.00
9824;DHT22;4951;50.778;7.196;2022-09-28T14:35:55;13.60;99.90
9824;DHT22;4951;50.778;7.196;2022-09-28T14:38:36;13.60;1.00
9824;DHT22;4951;50.778;7.196;2022-09-28T14:41:33;13.70;1.00
9824;DHT22;4951;50.778;7.196;2022-09-28T14:44:03;14.00;1.00
9824;DHT22;4951;50.778;7.196;2022-09-28T14:46:36;14.20;99.90
9824;DHT22;4951;50.778;7.196;2022-09-28T14:49:42;14.50;1.00
9824;DHT22;4951;50.778;7.196;2022-09-28T14:52:38;14.70;1.00
9824;DHT22;4951;50.778;7.196;2022-09-28T14:55:18;15.10;99.90
9824;DHT22;4951;50.778;7.196;2022-09-28T14:57:58;15.30;99.90
9824;DHT22;4951;50.778;7.196;2022-09-28T15:00:27;15.50;1.00
9824;DHT22;4951;50.778;7.196;2022-09-28T15:03:01;15.60;1.00
9824;DHT22;4951;50.778;7.196;2022-09-28T15:05:45;15.70;99.90
9824;DHT22;4951;50.778;7.196;2022-09-28T15:08:37;15.60;99.90
9824;DHT22;4951;50.778;7.196;2022-09-28T15:11:11;15.30;1.00
9824;DHT22;4951;50.778;7.196;2022-09-28T15:13:41;14.90;1.00
9824;DHT22;4951;50.778;7.196;2022-09-28T15:16:12;14.60;99.90
9824;DHT22;4951;50.778;7.196;2022-09-28T15:21:48;14.20;1.00
9824;DHT22;4951;50.778;7.196;2022-09-28T15:25:12;14.10;99.90
9824;DHT22;4951;50.778;7.196;2022-09-28T15:27:36;14.10;99.90
9824;DHT22;4951;50.778;7.196;2022-09-28T15:30:23;14.00;1.00
9824;DHT22;4951;50.778;7.196;2022-09-28T15:32:53;14.00;1.00
9824;DHT22;4951;50.778;7.196;2022-09-28T15:35:51;14.00;99.90
9824;DHT22;4951;50.778;7.196;2022-09-28T15:38:23;14.00;1.00
9824;DHT22;4951;50.778;7.196;2022-09-28T15:40:57;13.90;1.00
9824;DHT22;4951;50.778;7.196;2022-09-28T15:43:33;13.90;1.00
9824;DHT22;4951;50.778;7.196;2022-09-28T15:46:29;13.90;1.00
9824;DHT22;4951;50.778;7.196;2022-09-28T15:49:18;13.90;1.00
9824;DHT22;4951;50.778;7.196;2022-09-28T15:52:03;13.90;1.00
9824;DHT22;4951;50.778;7.196;2022-09-28T15:54:36;13.80;1.00
9824;DHT22;4951;50.778;7.196;2022-09-28T15:57:05;13.70;1.00
9824;DHT22;4951;50.778;7.196;2022-09-28T15:59:40;13.60;99.90
9824;DHT22;4951;50.778;7.196;2022-09-28T16:02:21;13.60;99.90
9824;DHT22;4951;50.778;7.196;2022-09-28T16:04:59;13.50;99.90
9824;DHT22;4951;50.778;7.196;2022-09-28T16:07:36;13.50;1.00
9824;DHT22;4951;50.778;7.196;2022-09-28T16:10:26;13.40;1.00
9824;DHT22;4951;50.778;7.196;2022-09-28T16:13:10;13.40;1.00
9824;DHT22;4951;50.778;7.196;2022-09-28T16:15:57;13.30;99.90
9824;DHT22;4951;50.778;7.196;2022-09-28T16:18:30;13.20;99.90
9824;DHT22;4951;50.778;7.196;2022-09-28T16:24:28;12.90;32.80
9824;DHT22;4951;50.778;7.196;2022-09-28T16:27:01;12.70;1.00
9824;DHT22;4951;50.778;7.196;2022-09-28T16:29:33;12.40;1.00
9824;DHT22;4951;50.778;7.196;2022-09-28T16:32:30;12.00;99.90
9824;DHT22;4951;50.778;7.196;2022-09-28T16:35:20;11.60;99.90
9824;DHT22;4951;50.778;7.196;2022-09-28T16:37:53;11.30;99.90
9824;DHT22;4951;50.778;7.196;2022-09-28T16:40:32;11.00;1.00
9824;DHT22;4951;50.778;7.196;2022-09-28T16:43:17;10.80;99.90
9824;DHT22;4951;50.778;7.196;2022-09-28T16:45:45;10.70;1.00
9824;DHT22;4951;50.778;7.196;2022-09-28T16:48:14;10.60;1.00
9824;DHT22;4951;50.778;7.196;2022-09-28T16:50:47;10.50;99.90
9824;DHT22;4951;50.778;7.196;2022-09-28T16:53:15;10.40;1.00
9824;DHT22;4951;50.778;7.196;2022-09-28T16:56:01;10.30;1.00
9824;DHT22;4951;50.778;7.196;2022-09-28T16:58:36;10.30;1.00
9824;DHT22;4951;50.778;7.196;2022-09-28T17:01:04;10.30;1.00
9824;DHT22;4951;50.778;7.196;2022-09-28T17:03:33;10.30;99.90
9824;DHT22;4951;50.778;7.196;2022-09-28T17:06:04;10.30;99.90
9824;DHT22;4951;50.778;7.196;2022-09-28T17:08:35;10.30;99.90
9824;DHT22;4951;50.778;7.196;2022-09-28T17:11:04;10.30;99.90
9824;DHT22;4951;50.778;7.196;2022-09-28T17:13:32;10.30;99.90
9824;DHT22;4951;50.778;7.196;2022-09-28T17:16:10;10.30;99.90
9824;DHT22;4951;50.778;7.196;2022-09-28T17:18:38;10.30;99.90
9824;DHT22;4951;50.778;7.196;2022-09-28T17:21:10;10.20;99.90
9824;DHT22;4951;50.778;7.196;2022-09-28T17:23:39;10.20;99.90
9824;DHT22;4951;50.778;7.196;2022-09-28T17:26:08;10.20;1.00
9824;DHT22;4951;50.778;7.196;2022-09-28T17:28:40;10.20;1.00
9824;DHT22;4951;50.778;7.196;2022-09-28T17:31:19;10.20;1.00
9824;DHT22;4951;50.778;7.196;2022-09-28T17:33:48;10.20;1.00
9824;DHT22;4951;50.778;7.196;2022-09-28T17:36:18;10.20;1.00
9824;DHT22;4951;50.778;7.196;2022-09-28T17:38:56;10.20;1.00
9824;DHT22;4951;50.778;7.196;2022-09-28T17:41:23;10.20;1.00
9824;DHT22;4951;50.778;7.196;2022-09-28T17:43:51;10.10;1.00